Time;durP1;ratioP1;P1;durP2;ratioP2;P2;SDS_P1;SDS_P2;PMS_P1;PMS_P2;Temp;Humidity;BMP_temperature;BMP_pressure;BME280_temperature;BME280_humidity;BME280_pressure;Samples;Min_cycle;Max_cycle;Signal;HPM_P1;HPM_P2
2021/08/05 00:00:51;;;;;;;5.83;5.43;;;;;;;14.21;100.00;100874.16;5070640;28;20174;-71
2021/08/05 00:03:17;;;;;;;6.40;6.00;;;;;;;14.17;100.00;100872.38;5070007;28;20217;-71
2021/08/05 00:05:42;;;;;;;5.07;4.67;;;;;;;14.11;100.00;100870.94;5070209;28;20174;-71
2021/08/05 00:08:07;;;;;;;8.97;4.97;;;;;;;14.05;100.00;100873.06;5069252;28;20201;-71
2021/08/05 00:10:33;;;;;;;5.67;5.27;;;;;;;14.02;100.00;100884.66;5070802;28;20171;-71
2021/08/05 00:12:59;;;;;;;5.87;5.37;;;;;;;13.98;100.00;100889.19;5070224;28;20690;-71
2021/08/05 00:15:24;;;;;;;5.27;4.97;;;;;;;13.95;100.00;100884.34;5070425;28;20174;-71
2021/08/05 00:17:49;;;;;;;5.87;5.43;;;;;;;13.95;100.00;100882.41;5070212;28;20177;-71
2021/08/05 00:20:15;;;;;;;5.23;4.90;;;;;;;14.04;100.00;100887.91;5069871;28;20181;-71
2021/08/05 00:22:40;;;;;;;6.13;5.73;;;;;;;14.06;100.00;100891.16;5069878;28;20185;-71
2021/08/05 00:25:06;;;;;;;6.57;6.07;;;;;;;14.10;100.00;100900.34;5070270;28;20629;-72
2021/08/05 00:27:31;;;;;;;5.57;5.17;;;;;;;14.08;100.00;100891.63;5070219;28;20197;-71
2021/08/05 00:29:57;;;;;;;7.00;6.40;;;;;;;14.04;100.00;100898.09;5070685;28;20634;-71
2021/08/05 00:32:22;;;;;;;5.07;4.73;;;;;;;14.09;100.00;100908.91;5070103;28;20209;-71
2021/08/05 00:34:47;;;;;;;5.50;5.10;;;;;;;14.03;100.00;100916.50;5070322;28;20228;-71
2021/08/05 00:37:13;;;;;;;5.60;5.20;;;;;;;13.87;100.00;100904.38;5070042;28;20179;-71
2021/08/05 00:39:38;;;;;;;5.70;5.23;;;;;;;13.82;100.00;100913.59;5068849;28;20265;-71
2021/08/05 00:42:04;;;;;;;5.30;4.90;;;;;;;13.82;100.00;100923.78;5070050;28;20532;-71
2021/08/05 00:44:30;;;;;;;9.00;4.90;;;;;;;13.73;100.00;100922.94;5070029;28;20681;-71
2021/08/05 00:46:56;;;;;;;5.87;5.47;;;;;;;13.71;100.00;100926.00;5072063;28;20572;-71
2021/08/05 00:49:21;;;;;;;5.60;5.20;;;;;;;13.76;100.00;100922.31;5073724;28;20171;-71
2021/08/05 00:51:47;;;;;;;6.00;5.50;;;;;;;13.74;100.00;100933.59;5073697;28;20591;-71
2021/08/05 00:54:12;;;;;;;5.97;5.47;;;;;;;13.80;100.00;100931.53;5073934;28;20324;-71
2021/08/05 00:56:38;;;;;;;5.80;5.37;;;;;;;13.80;100.00;100942.50;5073787;28;20166;-71
2021/08/05 00:59:03;;;;;;;6.30;5.80;;;;;;;13.80;100.00;100937.03;5074137;28;20542;-71
2021/08/05 01:01:36;;;;;;;5.93;5.53;;;;;;;13.79;100.00;100932.66;5073271;28;20178;-70
2021/08/05 01:04:02;;;;;;;6.67;6.10;;;;;;;13.71;100.00;100937.00;5073695;28;20217;-71
2021/08/05 01:06:52;;;;;;;6.67;6.07;;;;;;;13.68;100.00;100946.69;5073442;28;20536;-71
2021/08/05 01:09:58;;;;;;;6.87;6.37;;;;;;;13.64;100.00;100947.66;5073577;28;20653;-71
2021/08/05 01:12:42;;;;;;;6.83;6.30;;;;;;;13.55;100.00;100950.38;5073192;28;20171;-71
2021/08/05 01:15:08;;;;;;;7.13;6.33;;;;;;;13.62;100.00;100956.22;5073307;28;20223;-71
2021/08/05 01:17:37;;;;;;;7.87;7.27;;;;;;;13.59;100.00;100956.81;5073321;28;20171;-71
2021/08/05 01:20:07;;;;;;;6.57;5.63;;;;;;;13.52;100.00;100961.19;5073394;28;20179;-71
2021/08/05 01:23:04;;;;;;;7.73;6.93;;;;;;;13.48;100.00;100965.69;5073010;28;20177;-71
2021/08/05 01:25:48;;;;;;;7.60;7.00;;;;;;;13.43;100.00;100977.59;5073109;28;20187;-71
2021/08/05 01:28:15;;;;;;;7.77;7.13;;;;;;;13.47;100.00;100969.56;5073006;28;20179;-71
2021/08/05 01:30:45;;;;;;;8.67;7.97;;;;;;;13.45;100.00;100978.09;5073070;28;20182;-71
2021/08/05 01:33:12;;;;;;;7.43;6.83;;;;;;;13.61;100.00;100987.53;5072925;28;20196;-71
2021/08/05 01:35:40;;;;;;;7.87;7.27;;;;;;;13.72;100.00;100988.03;5072906;28;20179;-72
2021/08/05 01:38:07;;;;;;;7.57;6.97;;;;;;;13.86;100.00;100996.16;5072872;28;20630;-72
2021/08/05 01:40:33;;;;;;;8.83;7.27;;;;;;;13.93;100.00;100988.25;5072861;28;20224;-71
2021/08/05 01:42:58;;;;;;;7.63;7.03;;;;;;;13.83;100.00;100983.06;5072597;28;20210;-71
2021/08/05 01:45:24;;;;;;;8.07;7.47;;;;;;;13.70;100.00;101002.09;5073460;28;20197;-72
2021/08/05 01:47:50;;;;;;;9.07;8.23;;;;;;;13.65;100.00;101007.75;5072708;28;20178;-72
2021/08/05 01:50:17;;;;;;;9.30;8.60;;;;;;;13.73;100.00;101008.88;5073094;28;20228;-71
2021/08/05 01:52:43;;;;;;;9.77;9.00;;;;;;;13.73;100.00;100994.34;5072440;28;20491;-71
2021/08/05 01:55:10;;;;;;;10.13;8.63;;;;;;;13.67;100.00;100999.19;5071226;28;20184;-71
2021/08/05 01:57:35;;;;;;;8.53;7.93;;;;;;;13.65;100.00;100988.50;5072076;28;20718;-71
2021/08/05 02:00:02;;;;;;;9.47;8.67;;;;;;;13.65;100.00;100998.69;5072567;28;20258;-71
2021/08/05 02:02:27;;;;;;;9.10;8.40;;;;;;;13.73;100.00;101013.56;5070659;28;20186;-71
2021/08/05 02:05:08;;;;;;;9.57;8.77;;;;;;;13.82;100.00;101019.91;5072789;28;20523;-71
2021/08/05 02:07:45;;;;;;;9.60;8.70;;;;;;;13.91;100.00;101016.06;5072519;28;20397;-71
2021/08/05 02:10:27;;;;;;;8.67;7.93;;;;;;;13.88;100.00;101016.66;5071177;28;20181;-71
2021/08/05 02:13:17;;;;;;;10.03;9.03;;;;;;;13.91;100.00;101010.56;5072042;28;20175;-71
2021/08/05 02:15:53;;;;;;;9.53;8.83;;;;;;;14.00;100.00;101010.56;5072729;28;20645;-72
2021/08/05 02:18:21;;;;;;;9.30;8.50;;;;;;;14.05;100.00;101010.44;5072160;28;20177;-72
2021/08/05 02:20:47;;;;;;;10.03;9.13;;;;;;;13.69;100.00;100997.72;5071801;28;20709;-71
2021/08/05 02:23:15;;;;;;;11.97;9.50;;;;;;;13.42;100.00;100986.97;5071678;28;20251;-71
2021/08/05 02:25:41;;;;;;;10.37;9.33;;;;;;;13.62;100.00;101005.63;5072028;28;20175;-71
2021/08/05 02:28:07;;;;;;;9.40;8.60;;;;;;;13.86;100.00;101004.38;5071858;28;20235;-71
2021/08/05 02:30:35;;;;;;;9.17;8.47;;;;;;;13.96;100.00;101007.66;5071928;28;20248;-71
2021/08/05 02:33:01;;;;;;;8.60;7.63;;;;;;;14.08;100.00;101020.78;5071878;28;20236;-72
2021/08/05 02:35:27;;;;;;;8.07;7.40;;;;;;;14.02;100.00;101015.72;5071942;28;20174;-72
2021/08/05 02:37:53;;;;;;;7.87;7.17;;;;;;;14.17;100.00;101012.53;5071914;28;20178;-71
2021/08/05 02:40:19;;;;;;;9.13;8.43;;;;;;;14.23;100.00;101028.56;5071743;28;20166;-72
2021/08/05 02:42:46;;;;;;;12.53;11.53;;;;;;;14.25;100.00;101017.22;5071203;28;20179;-71
2021/08/05 02:45:12;;;;;;;13.63;11.43;;;;;;;14.28;100.00;101006.41;5070140;28;20194;-71
2021/08/05 02:47:39;;;;;;;12.43;11.43;;;;;;;14.25;100.00;101009.00;5071256;28;20224;-71
2021/08/05 02:50:06;;;;;;;13.30;12.30;;;;;;;14.16;100.00;101016.41;5071596;28;20179;-71
2021/08/05 02:52:33;;;;;;;11.83;10.73;;;;;;;14.08;100.00;100987.78;5071311;28;20174;-71
2021/08/05 02:55:00;;;;;;;11.83;10.73;;;;;;;14.07;100.00;100972.44;5070047;28;20186;-71
2021/08/05 02:57:26;;;;;;;15.77;10.63;;;;;;;14.01;100.00;100962.72;5071293;28;20534;-71
2021/08/05 02:59:52;;;;;;;12.50;11.30;;;;;;;13.98;100.00;100960.63;5070997;28;20229;-71
2021/08/05 03:02:17;;;;;;;11.43;10.43;;;;;;;13.88;100.00;100949.94;5071042;28;20687;-71
2021/08/05 03:04:43;;;;;;;12.53;11.13;;;;;;;13.89;100.00;100954.34;5071292;28;20201;-71
2021/08/05 03:07:10;;;;;;;12.03;11.07;;;;;;;13.84;100.00;100940.72;5071260;28;20182;-71
2021/08/05 03:09:35;;;;;;;17.83;11.20;;;;;;;13.78;100.00;100934.59;5070188;28;20171;-71
2021/08/05 03:12:01;;;;;;;12.37;11.27;;;;;;;13.72;100.00;100930.38;5070847;28;20178;-71
2021/08/05 03:14:27;;;;;;;14.13;12.93;;;;;;;13.69;100.00;100929.06;5071288;28;20178;-71
2021/08/05 03:16:52;;;;;;;13.90;12.60;;;;;;;13.76;100.00;100925.88;5071092;28;20182;-72
2021/08/05 03:19:18;;;;;;;14.03;12.87;;;;;;;13.82;100.00;100923.78;5071170;28;20182;-72
2021/08/05 03:21:43;;;;;;;13.23;11.93;;;;;;;13.87;100.00;100924.41;5070962;28;20544;-72
2021/08/05 03:24:09;;;;;;;14.07;12.77;;;;;;;14.00;100.00;100933.63;5070916;28;20251;-71
2021/08/05 03:26:34;;;;;;;13.83;12.53;;;;;;;14.04;100.00;100933.81;5070824;28;20174;-71
2021/08/05 03:28:59;;;;;;;15.97;13.57;;;;;;;13.94;100.00;100935.75;5070970;28;20181;-71
2021/08/05 03:31:25;;;;;;;15.40;13.90;;;;;;;13.87;100.00;100927.16;5070708;28;20634;-71
2021/08/05 03:33:50;;;;;;;13.83;12.57;;;;;;;13.90;100.00;100928.47;5070807;28;20170;-71
2021/08/05 03:36:16;;;;;;;12.90;11.73;;;;;;;13.96;100.00;100924.44;5070788;28;20332;-71
2021/08/05 03:38:41;;;;;;;14.03;12.33;;;;;;;13.95;100.00;100928.31;5070977;28;20186;-71
2021/08/05 03:41:06;;;;;;;13.80;12.70;;;;;;;14.02;100.00;100927.81;5070657;28;20225;-71
2021/08/05 03:43:33;;;;;;;14.20;12.97;;;;;;;14.05;100.00;100968.41;5070654;28;20194;-71
2021/08/05 03:45:58;;;;;;;14.17;12.83;;;;;;;14.06;100.00;100910.38;5070631;28;20300;-71
2021/08/05 03:48:24;;;;;;;14.03;12.87;;;;;;;14.11;100.00;100910.22;5070722;28;20261;-71
2021/08/05 03:50:49;;;;;;;13.07;12.07;;;;;;;14.14;100.00;100915.06;5070684;28;20183;-71
2021/08/05 03:53:14;;;;;;;14.80;13.50;;;;;;;14.20;100.00;100910.22;5070407;28;20170;-72
2021/08/05 03:55:40;;;;;;;14.17;12.23;;;;;;;14.19;100.00;100900.38;5070969;28;20174;-71
2021/08/05 03:58:09;;;;;;;14.07;12.70;;;;;;;14.21;100.00;100915.38;5070731;28;20235;-71
2021/08/05 04:00:35;;;;;;;13.90;12.70;;;;;;;13.97;100.00;100920.56;5070569;28;20202;-71
2021/08/05 04:03:00;;;;;;;12.77;11.57;;;;;;;14.15;100.00;100913.91;5070078;28;20660;-71
2021/08/05 04:05:25;;;;;;;12.43;11.03;;;;;;;14.30;100.00;100921.66;5070565;28;20178;-71
2021/08/05 04:07:51;;;;;;;10.97;10.07;;;;;;;14.37;100.00;100912.13;5070848;28;20496;-71
2021/08/05 04:10:16;;;;;;;11.13;10.23;;;;;;;14.40;100.00;100906.00;5070014;28;20213;-71
2021/08/05 04:12:41;;;;;;;12.87;11.20;;;;;;;14.37;100.00;100898.41;5070351;28;20254;-71
2021/08/05 04:15:08;;;;;;;12.03;10.93;;;;;;;14.39;100.00;100894.19;5070607;28;20668;-71
2021/08/05 04:17:34;;;;;;;11.13;10.23;;;;;;;14.46;100.00;100907.44;5070483;28;20175;-71
2021/08/05 04:20:00;;;;;;;13.93;10.80;;;;;;;14.50;100.00;100903.75;5072471;28;20223;-71
2021/08/05 04:22:26;;;;;;;11.63;10.73;;;;;;;14.58;100.00;100888.34;5074396;28;20175;-71
2021/08/05 04:24:51;;;;;;;10.97;9.97;;;;;;;14.66;100.00;100890.28;5074444;28;20198;-71
2021/08/05 04:27:16;;;;;;;11.33;10.17;;;;;;;14.59;100.00;100878.97;5074448;28;20246;-70
2021/08/05 04:29:42;;;;;;;12.10;11.10;;;;;;;14.09;100.00;100874.00;5074436;28;20171;-71
2021/08/05 04:32:07;;;;;;;11.60;10.70;;;;;;;14.07;100.00;100908.44;5074586;28;20175;-71
2021/08/05 04:34:32;;;;;;;11.33;10.40;;;;;;;14.19;100.00;100901.16;5074543;28;20201;-70
2021/08/05 04:36:58;;;;;;;14.70;12.07;;;;;;;14.25;100.00;100932.84;5074382;28;20174;-71
2021/08/05 04:39:23;;;;;;;10.67;9.80;;;;;;;14.24;100.00;100957.91;5074436;28;20166;-71
2021/08/05 04:41:48;;;;;;;12.47;11.37;;;;;;;13.85;100.00;100950.59;5073938;28;20201;-71
2021/08/05 04:44:14;;;;;;;14.90;11.60;;;;;;;14.03;100.00;100970.63;5074163;28;20705;-71
2021/08/05 04:46:39;;;;;;;12.97;11.70;;;;;;;14.12;100.00;100986.00;5074253;28;20626;-71
2021/08/05 04:49:04;;;;;;;10.87;9.97;;;;;;;14.16;100.00;100977.94;5074280;28;20510;-71
2021/08/05 04:51:33;;;;;;;16.40;10.90;;;;;;;14.40;100.00;100989.25;5074160;28;20226;-71
2021/08/05 04:54:03;;;;;;;12.57;11.47;;;;;;;14.43;100.00;100993.31;5075990;28;20187;-70
2021/08/05 04:56:29;;;;;;;13.33;12.20;;;;;;;14.43;100.00;100999.59;5080698;28;20183;-71
2021/08/05 04:58:55;;;;;;;13.90;12.60;;;;;;;14.07;100.00;100988.13;5074912;28;20178;-71
2021/08/05 05:01:20;;;;;;;13.73;12.53;;;;;;;13.99;100.00;100995.22;5074482;28;20693;-71
2021/08/05 05:03:46;;;;;;;14.27;13.10;;;;;;;14.15;100.00;100999.09;5073814;28;20275;-71
2021/08/05 05:06:11;;;;;;;20.00;13.33;;;;;;;14.36;100.00;101020.47;5072932;28;20209;-71
2021/08/05 05:08:37;;;;;;;14.47;13.27;;;;;;;14.46;100.00;101020.19;5072441;28;20219;-71
2021/08/05 05:11:02;;;;;;;14.80;13.07;;;;;;;14.54;100.00;101011.94;5073970;28;20185;-70
2021/08/05 05:13:27;;;;;;;12.97;11.83;;;;;;;14.64;100.00;100993.50;5073322;28;20213;-70
2021/08/05 05:15:53;;;;;;;12.90;11.63;;;;;;;14.70;100.00;100993.00;5073394;28;20546;-71
2021/08/05 05:18:21;;;;;;;12.37;11.37;;;;;;;14.74;100.00;101012.41;5073810;28;20171;-71
2021/08/05 05:20:47;;;;;;;12.93;11.97;;;;;;;14.83;100.00;101024.22;5073482;28;20193;-71
2021/08/05 05:23:12;;;;;;;13.50;12.30;;;;;;;14.81;100.00;100983.28;5071720;28;20657;-70
2021/08/05 05:25:38;;;;;;;13.23;12.13;;;;;;;14.86;100.00;100985.84;5073555;28;20183;-70
2021/08/05 05:28:05;;;;;;;14.07;12.87;;;;;;;14.92;100.00;100989.25;5073290;28;20170;-71
2021/08/05 05:30:31;;;;;;;13.37;12.27;;;;;;;14.96;100.00;100989.41;5072829;28;20182;-72
2021/08/05 05:32:56;;;;;;;13.77;12.67;;;;;;;14.85;100.00;100994.44;5072371;28;20657;-72
2021/08/05 05:35:22;;;;;;;18.43;14.83;;;;;;;14.64;100.00;100977.81;5073037;28;20590;-72
2021/08/05 05:37:51;;;;;;;16.03;14.53;;;;;;;14.85;100.00;101005.44;5073063;28;20235;-71
2021/08/05 05:40:16;;;;;;;15.67;14.17;;;;;;;14.82;100.00;100995.09;5073055;28;20606;-73
2021/08/05 05:42:42;;;;;;;16.37;13.67;;;;;;;14.84;100.00;101003.81;5072894;28;20181;-73
2021/08/05 05:45:10;;;;;;;15.20;13.80;;;;;;;14.65;100.00;100995.13;5073084;28;20202;-73
2021/08/05 05:47:36;;;;;;;14.03;12.80;;;;;;;14.24;100.00;100990.88;5072836;28;20178;-72
2021/08/05 05:50:01;;;;;;;15.27;13.83;;;;;;;14.46;100.00;101014.69;5071011;28;20275;-73
2021/08/05 05:52:27;;;;;;;14.63;13.33;;;;;;;14.69;100.00;101023.56;5066295;28;20186;-73
2021/08/05 05:54:52;;;;;;;16.53;14.93;;;;;;;14.74;100.00;101026.16;5072756;28;20182;-73
2021/08/05 05:57:17;;;;;;;16.77;14.47;;;;;;;14.83;100.00;101051.72;5072828;28;20193;-74
2021/08/05 05:59:43;;;;;;;16.17;14.77;;;;;;;15.03;100.00;101041.97;5071480;28;20662;-74
2021/08/05 06:02:08;;;;;;;15.90;14.43;;;;;;;15.17;100.00;101023.31;5072382;28;20175;-73
2021/08/05 06:04:34;;;;;;;16.07;14.60;;;;;;;15.22;100.00;101056.22;5072578;28;20216;-73
2021/08/05 06:06:59;;;;;;;14.50;13.17;;;;;;;15.14;100.00;101046.81;5072707;28;20281;-74
2021/08/05 06:09:24;;;;;;;16.13;13.93;;;;;;;14.87;100.00;101036.97;5072733;28;20174;-74
2021/08/05 06:11:50;;;;;;;15.10;13.63;;;;;;;14.79;100.00;101040.56;5072361;28;20215;-74
2021/08/05 06:14:15;;;;;;;15.83;14.37;;;;;;;14.65;100.00;101044.63;5072486;28;20180;-73
2021/08/05 06:16:41;;;;;;;14.77;13.27;;;;;;;14.69;100.00;101027.13;5072700;28;20171;-73
2021/08/05 06:19:07;;;;;;;15.13;13.63;;;;;;;14.96;100.00;101052.69;5072633;28;20178;-73
2021/08/05 06:21:33;;;;;;;15.30;13.90;;;;;;;15.03;100.00;101045.53;5072271;28;20435;-73
2021/08/05 06:23:58;;;;;;;15.53;14.23;;;;;;;15.11;100.00;101041.97;5068527;28;20684;-73
2021/08/05 06:26:24;;;;;;;14.50;13.20;;;;;;;15.27;100.00;101056.03;5072577;28;20175;-73
2021/08/05 06:28:51;;;;;;;15.37;13.97;;;;;;;15.39;100.00;101044.31;5072015;28;20691;-73
2021/08/05 06:31:18;;;;;;;15.37;14.07;;;;;;;15.32;100.00;101036.56;5072025;28;20182;-73
2021/08/05 06:33:43;;;;;;;15.60;14.20;;;;;;;15.41;100.00;101028.28;5072057;28;20186;-74
2021/08/05 06:36:08;;;;;;;15.60;14.10;;;;;;;15.13;100.00;101012.16;5069142;28;20178;-73
2021/08/05 06:38:34;;;;;;;15.17;13.77;;;;;;;15.06;100.00;100995.38;5070482;28;20623;-72
2021/08/05 06:40:59;;;;;;;15.10;13.60;;;;;;;15.37;100.00;101010.81;5071885;28;20571;-73
2021/08/05 06:43:25;;;;;;;15.27;13.90;;;;;;;15.50;100.00;101008.97;5070584;28;20684;-73
2021/08/05 06:45:50;;;;;;;16.10;14.70;;;;;;;15.53;100.00;101005.56;5072066;28;20182;-74
2021/08/05 06:48:15;;;;;;;18.93;15.73;;;;;;;15.23;100.00;100994.50;5071943;28;20174;-73
2021/08/05 06:50:41;;;;;;;18.67;16.73;;;;;;;15.08;100.00;100987.59;5071923;28;20177;-73
2021/08/05 06:53:06;;;;;;;20.87;18.80;;;;;;;14.91;100.00;100984.06;5072336;28;20581;-74
2021/08/05 06:55:32;;;;;;;23.37;18.23;;;;;;;14.85;100.00;100975.97;5071863;28;20265;-73
2021/08/05 06:57:57;;;;;;;19.07;17.10;;;;;;;14.99;100.00;100973.03;5071583;28;20190;-74
2021/08/05 07:00:22;;;;;;;21.33;18.73;;;;;;;15.09;100.00;100978.19;5066591;28;20239;-73
2021/08/05 07:02:48;;;;;;;19.30;17.43;;;;;;;15.16;100.00;100974.91;5070934;28;20672;-74
2021/08/05 07:05:13;;;;;;;21.80;17.77;;;;;;;15.13;100.00;100962.63;5069269;28;20311;-74
2021/08/05 07:07:39;;;;;;;20.93;18.90;;;;;;;15.00;100.00;100951.81;5070519;28;20178;-74
2021/08/05 07:10:05;;;;;;;24.97;16.80;;;;;;;15.00;100.00;100947.13;5070650;28;20182;-75
2021/08/05 07:12:31;;;;;;;19.90;16.97;;;;;;;15.17;100.00;100951.75;5070417;28;20270;-75
2021/08/05 07:14:57;;;;;;;21.63;18.63;;;;;;;15.47;100.00;100967.16;5070787;28;20285;-79
2021/08/05 07:17:22;;;;;;;21.27;17.70;;;;;;;15.60;100.00;100968.13;5071038;28;20220;-72
2021/08/05 07:19:48;;;;;;;18.30;16.50;;;;;;;15.40;100.00;100963.34;5071235;28;20652;-73
2021/08/05 07:22:13;;;;;;;27.77;17.27;;;;;;;15.33;100.00;100949.25;5070976;28;20209;-73
2021/08/05 07:24:38;;;;;;;20.83;18.73;;;;;;;15.26;100.00;100966.31;5070976;28;20613;-73
2021/08/05 07:27:05;;;;;;;17.20;15.60;;;;;;;15.46;100.00;100965.56;5071061;28;20185;-73
2021/08/05 07:29:31;;;;;;;19.43;16.30;;;;;;;15.58;100.00;100961.28;5070886;28;20182;-74
2021/08/05 07:32:01;;;;;;;18.73;17.00;;;;;;;15.55;100.00;100957.25;5070813;28;20622;-74
2021/08/05 07:34:26;;;;;;;18.93;17.03;;;;;;;15.62;100.00;100952.09;5070855;28;20190;-73
2021/08/05 07:36:51;;;;;;;18.93;17.23;;;;;;;15.71;100.00;100949.25;5070890;28;20316;-73
2021/08/05 07:39:16;;;;;;;17.13;15.70;;;;;;;15.56;100.00;100958.06;5071392;28;20253;-73
2021/08/05 07:41:42;;;;;;;19.03;17.03;;;;;;;15.75;100.00;100969.50;5070622;28;20618;-73
2021/08/05 07:44:08;;;;;;;18.07;16.40;;;;;;;15.92;100.00;100963.09;5070663;28;20701;-74
2021/08/05 07:46:34;;;;;;;18.57;16.67;;;;;;;15.91;100.00;100961.44;5070883;28;20178;-74
2021/08/05 07:48:59;;;;;;;19.07;17.03;;;;;;;16.02;100.00;100959.91;5070789;28;20548;-72
2021/08/05 07:51:26;;;;;;;17.87;16.37;;;;;;;16.20;100.00;100950.41;5069637;28;20247;-73
2021/08/05 07:53:52;;;;;;;19.33;15.70;;;;;;;16.31;100.00;100954.31;5065826;28;20277;-73
2021/08/05 07:56:18;;;;;;;17.73;16.23;;;;;;;16.21;100.00;100940.97;5070377;28;20682;-73
2021/08/05 07:58:43;;;;;;;18.87;17.07;;;;;;;16.45;100.00;100937.50;5069247;28;20170;-73
2021/08/05 08:01:09;;;;;;;16.30;14.90;;;;;;;16.65;100.00;100944.94;5063637;28;20189;-73
2021/08/05 08:03:34;;;;;;;16.77;15.17;;;;;;;16.71;100.00;100939.22;5063863;28;20252;-73
2021/08/05 08:06:01;;;;;;;17.50;15.70;;;;;;;16.67;100.00;100930.84;5066051;28;20226;-73
2021/08/05 08:08:26;;;;;;;18.27;16.43;;;;;;;16.49;100.00;100930.19;5070316;28;20206;-72
2021/08/05 08:10:51;;;;;;;18.63;16.60;;;;;;;16.44;100.00;100915.78;5070544;28;20254;-73
2021/08/05 08:13:17;;;;;;;16.70;15.30;;;;;;;16.50;100.00;100929.03;5070521;28;20190;-72
2021/08/05 08:15:43;;;;;;;17.00;15.50;;;;;;;16.43;100.00;100922.44;5069204;28;20666;-73
2021/08/05 08:18:08;;;;;;;18.20;16.30;;;;;;;16.69;100.00;100925.78;5070412;28;20260;-73
2021/08/05 08:20:33;;;;;;;17.47;15.87;;;;;;;16.97;100.00;100928.72;5066646;28;20186;-73
2021/08/05 08:22:59;;;;;;;18.67;15.07;;;;;;;17.01;100.00;100934.34;5069739;28;20178;-74
2021/08/05 08:25:25;;;;;;;17.23;15.47;;;;;;;16.93;100.00;100916.75;5066333;28;20190;-74
2021/08/05 08:27:50;;;;;;;20.43;15.80;;;;;;;16.60;100.00;100898.25;5070174;28;20189;-73
2021/08/05 08:30:16;;;;;;;18.17;16.27;;;;;;;16.36;100.00;100899.00;5069942;28;20174;-72
2021/08/05 08:32:43;;;;;;;17.10;15.50;;;;;;;16.60;100.00;100911.22;5069742;28;20178;-73
2021/08/05 08:35:10;;;;;;;17.43;15.43;;;;;;;16.66;100.00;100913.44;5069876;28;20178;-73
2021/08/05 08:37:35;;;;;;;16.37;14.87;;;;;;;16.86;100.00;100922.03;5065201;28;20186;-74
2021/08/05 08:40:01;;;;;;;16.37;14.60;;;;;;;17.02;100.00;100922.16;5069489;28;20175;-73
2021/08/05 08:42:27;;;;;;;35.83;15.23;;;;;;;16.70;100.00;100907.28;5069144;28;20170;-73
2021/08/05 08:44:52;;;;;;;18.07;14.50;;;;;;;16.89;100.00;100905.56;5069657;28;20565;-73
2021/08/05 08:47:21;;;;;;;17.30;15.70;;;;;;;16.96;100.00;100910.56;5068856;28;20171;-73
2021/08/05 08:49:48;;;;;;;15.90;14.50;;;;;;;16.88;100.00;100903.16;5069959;28;20533;-73
2021/08/05 08:52:14;;;;;;;16.37;14.87;;;;;;;16.93;100.00;100906.53;5069899;28;20183;-73
2021/08/05 08:54:44;;;;;;;15.73;14.43;;;;;;;17.08;100.00;100907.81;5069943;28;20526;-73
2021/08/05 08:57:13;;;;;;;17.47;15.97;;;;;;;17.18;100.00;100898.25;5069851;28;20183;-73
2021/08/05 08:59:40;;;;;;;18.03;16.13;;;;;;;16.80;100.00;100904.09;5069905;28;20171;-73
2021/08/05 09:02:06;;;;;;;18.33;16.73;;;;;;;16.85;100.00;100874.31;5068432;28;20183;-73
2021/08/05 09:04:34;;;;;;;18.07;16.03;;;;;;;16.98;100.00;100874.31;5067041;28;20268;-73
2021/08/05 09:06:59;;;;;;;19.00;17.10;;;;;;;16.92;100.00;100873.72;5071323;28;20183;-71
2021/08/05 09:09:25;;;;;;;18.87;16.30;;;;;;;17.08;100.00;100868.34;5073737;28;20167;-72
2021/08/05 09:11:50;;;;;;;18.50;17.03;;;;;;;17.20;100.00;100879.38;5073839;28;20206;-72
2021/08/05 09:14:43;;;;;;;17.37;15.70;;;;;;;17.07;100.00;100870.31;5073564;28;20610;-73
2021/08/05 09:17:26;;;;;;;15.67;14.37;;;;;;;17.42;100.00;100883.63;5073331;28;20233;-72
2021/08/05 09:19:56;;;;;;;18.17;16.00;;;;;;;17.59;100.00;100883.38;5073554;28;20795;-72
2021/08/05 09:22:36;;;;;;;17.70;16.20;;;;;;;17.74;100.00;100881.88;5073087;28;20167;-73
2021/08/05 09:25:31;;;;;;;16.23;14.73;;;;;;;17.98;100.00;100869.97;5073403;28;20198;-73
2021/08/05 09:28:00;;;;;;;17.67;16.00;;;;;;;17.87;100.00;100857.78;5073361;28;20650;-73
2021/08/05 09:30:37;;;;;;;18.47;16.77;;;;;;;17.73;100.00;100853.44;5073271;28;20167;-72
2021/08/05 09:33:16;;;;;;;16.67;15.17;;;;;;;17.68;100.00;100839.88;5073134;28;20174;-72
2021/08/05 09:35:44;;;;;;;15.87;14.57;;;;;;;18.03;100.00;100844.81;5073174;28;20166;-72
2021/08/05 09:38:26;;;;;;;15.63;14.07;;;;;;;18.25;100.00;100855.34;5073173;28;20174;-72
2021/08/05 09:41:03;;;;;;;15.67;14.37;;;;;;;18.48;100.00;100855.53;5073118;28;20262;-72
2021/08/05 09:43:30;;;;;;;15.17;13.70;;;;;;;18.57;100.00;100850.66;5072847;28;20232;-73
2021/08/05 09:45:55;;;;;;;14.53;13.23;;;;;;;18.78;100.00;100850.41;5072948;28;20249;-72
2021/08/05 09:48:33;;;;;;;14.87;13.47;;;;;;;19.00;100.00;100855.34;5072827;28;20261;-72
2021/08/05 09:51:09;;;;;;;12.27;11.37;;;;;;;19.17;100.00;100845.84;5072814;28;20166;-72
2021/08/05 09:53:34;;;;;;;12.97;11.77;;;;;;;18.91;100.00;100823.44;5072603;28;20672;-72
2021/08/05 09:56:11;;;;;;;12.70;11.70;;;;;;;18.90;100.00;100830.16;5073146;28;20170;-72
2021/08/05 09:58:38;;;;;;;11.37;10.47;;;;;;;19.28;100.00;100830.28;5072747;28;20642;-73
2021/08/05 10:01:07;;;;;;;11.40;10.57;;;;;;;19.62;100.00;100877.78;5072553;28;20704;-72
2021/08/05 10:03:34;;;;;;;11.70;10.70;;;;;;;19.73;100.00;100828.94;5072008;28;20209;-72
2021/08/05 10:06:02;;;;;;;10.40;9.17;;;;;;;19.90;100.00;100817.41;5072540;28;20175;-72
2021/08/05 10:08:38;;;;;;;10.70;9.80;;;;;;;19.81;98.28;100805.72;5072120;28;20232;-72
2021/08/05 10:11:05;;;;;;;11.23;10.37;;;;;;;19.54;98.03;100795.63;5070757;28;20178;-72
2021/08/05 10:13:36;;;;;;;11.13;10.23;;;;;;;19.84;96.98;100791.13;5071840;28;20175;-72
2021/08/05 10:16:07;;;;;;;8.93;8.23;;;;;;;19.90;96.83;100783.31;5069641;28;20209;-72
2021/08/05 10:18:35;;;;;;;9.80;9.00;;;;;;;20.17;98.54;100918.22;5071494;28;20166;-73
2021/08/05 10:21:04;;;;;;;9.27;8.67;;;;;;;20.37;96.08;100740.56;5071797;28;20170;-72
2021/08/05 10:23:30;;;;;;;9.30;8.50;;;;;;;20.57;96.20;100742.16;5071230;28;20263;-72
2021/08/05 10:25:58;;;;;;;9.27;8.50;;;;;;;20.71;91.52;100738.81;5070515;28;20223;-72
2021/08/05 10:28:24;;;;;;;9.50;8.73;;;;;;;20.77;90.10;100728.97;5071643;28;20708;-72
2021/08/05 10:30:54;;;;;;;8.93;8.33;;;;;;;20.62;89.98;100724.38;5071603;28;20175;-72
2021/08/05 10:33:21;;;;;;;7.77;7.27;;;;;;;20.60;91.78;100716.41;5071274;28;20228;-72
2021/08/05 10:35:48;;;;;;;9.13;8.30;;;;;;;20.53;91.53;100715.47;5071295;28;20174;-72
2021/08/05 10:38:19;;;;;;;8.17;7.57;;;;;;;20.67;93.07;100716.50;5070401;28;20174;-72
2021/08/05 10:40:47;;;;;;;8.40;7.80;;;;;;;20.58;90.27;100710.44;5071711;28;20166;-72
2021/08/05 10:43:13;;;;;;;7.70;7.20;;;;;;;20.44;86.90;100704.66;5071679;28;20182;-72
2021/08/05 10:45:39;;;;;;;7.43;6.93;;;;;;;20.53;89.80;100704.38;5071762;28;20217;-72
2021/08/05 10:48:05;;;;;;;7.93;7.10;;;;;;;20.66;89.22;100712.13;5072057;28;20558;-72
2021/08/05 10:50:40;;;;;;;6.27;5.83;;;;;;;20.65;85.36;100701.41;5070449;28;20644;-72
2021/08/05 10:53:06;;;;;;;5.70;5.40;;;;;;;20.85;86.25;100702.13;5071486;28;20170;-72
2021/08/05 10:55:34;;;;;;;5.63;5.33;;;;;;;20.84;84.42;100703.28;5071643;28;20171;-72
2021/08/05 10:58:09;;;;;;;6.23;5.83;;;;;;;20.77;85.59;100693.66;5071495;28;20162;-72
2021/08/05 11:00:49;;;;;;;6.20;5.80;;;;;;;20.79;85.88;100680.19;5071607;28;20180;-72
2021/08/05 11:03:35;;;;;;;6.07;5.67;;;;;;;20.88;87.05;100685.50;5069879;28;20622;-72
2021/08/05 11:06:03;;;;;;;5.70;5.30;;;;;;;20.92;84.87;100685.53;5080396;28;20222;-72
2021/08/05 11:08:30;;;;;;;5.57;5.23;;;;;;;21.17;81.94;100678.34;5075478;28;20191;-72